createdAt,value
2017-04-26T00:00:10.176Z,18.20
2017-04-26T00:01:10.205Z,19.98
2017-04-26T00:02:10.329Z,18.45
2017-04-26T00:03:11.059Z,18.18
2017-04-26T00:04:12.078Z,19.70
2017-04-26T00:05:12.106Z,19.85
2017-04-26T00:06:12.835Z,19.65
2017-04-26T00:07:12.827Z,18.88
2017-04-26T00:08:13.551Z,18.90
2017-04-26T00:09:14.649Z,19.95
2017-04-26T00:10:14.643Z,19.73
2017-04-26T00:11:14.582Z,20.50
2017-04-26T00:12:14.499Z,19.55
2017-04-26T00:13:14.507Z,20.63
2017-04-26T00:14:14.787Z,19.90
2017-04-26T00:15:14.836Z,19.85
2017-04-26T00:16:14.837Z,18.58
2017-04-26T00:17:14.820Z,19.12
2017-04-26T00:18:14.761Z,18.87
2017-04-26T00:19:15.130Z,18.27
2017-04-26T00:20:15.092Z,21.22
2017-04-26T00:21:15.025Z,20.18
2017-04-26T00:22:15.079Z,20.27
2017-04-26T00:23:22.980Z,19.00
2017-04-26T00:24:23.541Z,20.35
2017-04-26T00:25:23.472Z,19.03
2017-04-26T00:26:24.264Z,19.13
2017-04-26T00:27:24.252Z,18.80
2017-04-26T00:28:24.201Z,18.63
2017-04-26T00:29:24.511Z,18.67
2017-04-26T00:30:24.485Z,19.52
2017-04-26T00:31:24.414Z,17.85
2017-04-26T00:32:24.424Z,17.08
2017-04-26T00:33:24.357Z,18.60
2017-04-26T00:34:24.732Z,17.02
2017-04-26T00:35:24.694Z,17.85
2017-04-26T00:36:24.675Z,17.57
2017-04-26T00:37:25.405Z,17.87
2017-04-26T00:38:25.363Z,16.95
2017-04-26T00:39:25.721Z,17.18
2017-04-26T00:40:26.422Z,16.90
2017-04-26T00:41:26.411Z,17.17
2017-04-26T00:42:26.343Z,17.05
2017-04-26T00:43:27.044Z,16.78
2017-04-26T00:44:27.307Z,16.18
2017-04-26T00:45:27.260Z,16.82
2017-04-26T00:46:27.249Z,16.38
2017-04-26T00:47:27.278Z,15.88
2017-04-26T00:48:27.242Z,18.12
2017-04-26T00:49:27.597Z,16.38
2017-04-26T00:50:27.639Z,15.60
2017-04-26T00:51:28.375Z,15.87
2017-04-26T00:52:28.326Z,16.78
2017-04-26T00:53:28.243Z,15.25
2017-04-26T00:54:28.539Z,15.77
2017-04-26T00:55:28.446Z,14.70
2017-04-26T00:56:28.402Z,14.48
2017-04-26T00:57:28.345Z,13.62
2017-04-26T00:58:28.267Z,15.57
2017-04-26T00:59:28.235Z,15.53
2017-04-26T01:00:28.786Z,15.83
2017-04-26T01:01:28.760Z,15.55
2017-04-26T01:02:29.489Z,13.55
2017-04-26T01:03:29.471Z,15.23
2017-04-26T01:04:29.471Z,15.63
2017-04-26T01:05:29.807Z,15.82
2017-04-26T01:06:29.773Z,16.70
2017-04-26T01:07:30.478Z,16.95
2017-04-26T01:08:30.447Z,16.95
2017-04-26T01:09:30.128Z,16.33
2017-04-26T01:10:30.489Z,17.12
2017-04-26T01:11:30.427Z,17.50
2017-04-26T01:12:30.406Z,18.02
2017-04-26T01:13:30.399Z,16.68
2017-04-26T01:14:30.398Z,16.25
2017-04-26T01:15:30.625Z,18.40
2017-04-26T01:16:30.634Z,16.60
2017-04-26T01:17:30.558Z,17.83
2017-04-26T01:18:31.721Z,17.62
2017-04-26T01:19:31.661Z,17.88
2017-04-26T01:20:31.981Z,15.35
2017-04-26T01:21:31.970Z,16.13
2017-04-26T01:22:31.920Z,17.02
2017-04-26T01:23:32.727Z,17.48
2017-04-26T01:24:32.676Z,16.62
2017-04-26T01:25:32.768Z,16.80
2017-04-26T01:26:32.799Z,15.95
2017-04-26T01:27:32.841Z,16.25
2017-04-26T01:28:32.825Z,17.58
2017-04-26T01:29:32.743Z,16.90
2017-04-26T01:30:33.075Z,18.05
2017-04-26T01:31:33.005Z,16.88
2017-04-26T01:32:33.024Z,17.90
2017-04-26T01:33:33.050Z,16.42
2017-04-26T01:34:33.005Z,18.68
2017-04-26T01:35:33.314Z,18.27
2017-04-26T01:36:33.370Z,18.62
2017-04-26T01:37:33.340Z,18.65
2017-04-26T01:38:34.036Z,17.78
2017-04-26T01:39:34.015Z,18.02
2017-04-26T01:40:34.208Z,19.28
2017-04-26T01:41:34.151Z,18.15
2017-04-26T01:42:34.505Z,20.20
2017-04-26T01:43:35.223Z,20.47
2017-04-26T01:44:35.929Z,18.92
2017-04-26T01:45:36.223Z,18.18
2017-04-26T01:46:36.183Z,19.38
2017-04-26T01:47:36.154Z,18.05
2017-04-26T01:48:36.891Z,18.37
2017-04-26T01:49:36.865Z,18.23
2017-04-26T01:50:37.186Z,17.97
2017-04-26T01:51:36.919Z,18.50
2017-04-26T01:52:36.697Z,19.13
2017-04-26T01:53:36.702Z,20.53
2017-04-26T01:54:37.438Z,20.58
2017-04-26T01:55:38.441Z,19.30
2017-04-26T01:56:38.275Z,20.58
2017-04-26T01:57:38.274Z,18.93
2017-04-26T01:58:39.119Z,19.15
2017-04-26T01:59:39.137Z,19.45
2017-04-26T02:00:39.502Z,18.38
2017-04-26T02:01:39.785Z,19.13
2017-04-26T02:02:39.858Z,19.33
2017-04-26T02:03:39.839Z,19.82
2017-04-26T02:04:40.665Z,19.25
2017-04-26T02:05:41.672Z,17.65
2017-04-26T02:06:41.666Z,18.85
2017-04-26T02:07:41.596Z,18.32
2017-04-26T02:08:41.540Z,19.10
2017-04-26T02:09:41.622Z,19.18
2017-04-26T02:10:42.723Z,19.90
2017-04-26T02:11:42.637Z,19.05
2017-04-26T02:12:42.599Z,19.67
2017-04-26T02:13:42.309Z,19.00
2017-04-26T02:14:42.328Z,18.70
2017-04-26T02:15:42.748Z,19.47
2017-04-26T02:16:42.738Z,19.92
2017-04-26T02:17:42.685Z,19.22
2017-04-26T02:18:43.410Z,19.18
2017-04-26T02:19:43.377Z,19.67
2017-04-26T02:20:43.702Z,18.80
2017-04-26T02:21:43.399Z,18.25
2017-04-26T02:22:44.126Z,19.50
2017-04-26T02:23:44.073Z,21.82
2017-04-26T02:24:44.077Z,19.50
2017-04-26T02:25:45.245Z,19.62
2017-04-26T02:26:45.340Z,20.68
2017-04-26T02:27:45.403Z,20.20
2017-04-26T02:28:45.362Z,21.67
2017-04-26T02:29:45.326Z,19.77
2017-04-26T02:30:46.437Z,20.37
2017-04-26T02:31:46.416Z,21.58
2017-04-26T02:32:46.378Z,20.93
2017-04-26T02:33:46.363Z,20.53
2017-04-26T02:34:47.065Z,19.57
2017-04-26T02:35:47.364Z,20.50
2017-04-26T02:36:47.377Z,22.97
2017-04-26T02:37:47.338Z,19.63
2017-04-26T02:38:47.133Z,21.65
2017-04-26T02:39:47.105Z,21.50
2017-04-26T02:40:47.409Z,21.67
2017-04-26T02:41:47.344Z,22.10
2017-04-26T02:42:48.174Z,20.98
2017-04-26T02:43:48.903Z,22.82
2017-04-26T02:44:49.570Z,21.90
2017-04-26T02:45:49.905Z,23.22
2017-04-26T02:46:49.885Z,20.73
2017-04-26T02:47:49.851Z,21.65
2017-04-26T02:48:49.784Z,20.93
2017-04-26T02:49:50.176Z,22.43
2017-04-26T02:50:50.644Z,21.92
2017-04-26T02:51:50.622Z,22.32
2017-04-26T02:52:50.577Z,22.65
2017-04-26T02:53:51.272Z,22.08
2017-04-26T02:54:51.287Z,21.50
2017-04-26T02:55:51.710Z,21.07
2017-04-26T02:56:51.663Z,21.28
2017-04-26T02:57:51.715Z,22.08
2017-04-26T02:58:51.655Z,21.83
2017-04-26T02:59:51.619Z,22.65
2017-04-26T03:00:51.930Z,22.97
2017-04-26T03:01:51.942Z,23.98
2017-04-26T03:02:52.000Z,22.28
2017-04-26T03:03:52.013Z,23.52
2017-04-26T03:04:52.237Z,24.45
2017-04-26T03:05:52.579Z,23.55
2017-04-26T03:06:52.656Z,24.68
2017-04-26T03:07:52.596Z,23.92
2017-04-26T03:08:52.604Z,23.67
2017-04-26T03:09:52.599Z,23.65
2017-04-26T03:10:52.894Z,24.28
2017-04-26T03:11:52.855Z,24.97
2017-04-26T03:12:52.768Z,25.98
2017-04-26T03:13:52.713Z,25.62
2017-04-26T03:14:52.611Z,21.92
2017-04-26T03:15:53.656Z,23.18
2017-04-26T03:16:53.654Z,25.32
2017-04-26T03:17:53.612Z,25.38
2017-04-26T03:18:53.733Z,24.13
2017-04-26T03:19:53.783Z,25.48
2017-04-26T03:20:54.114Z,23.88
2017-04-26T03:21:54.071Z,23.22
2017-04-26T03:22:54.044Z,25.73
2017-04-26T03:23:54.106Z,25.60
2017-04-26T03:24:54.062Z,24.25
2017-04-26T03:25:55.078Z,25.10
2017-04-26T03:26:55.812Z,25.68
2017-04-26T03:27:56.468Z,24.97
2017-04-26T03:28:56.430Z,25.25
2017-04-26T03:29:57.120Z,23.95
2017-04-26T03:30:57.420Z,24.95
2017-04-26T03:31:57.377Z,24.83
2017-04-26T03:32:58.079Z,24.55
2017-04-26T03:33:58.022Z,23.40
2017-04-26T03:34:57.955Z,23.90
2017-04-26T03:35:58.203Z,24.93
2017-04-26T03:36:59.052Z,24.05
2017-04-26T03:37:59.716Z,24.50
2017-04-26T03:38:59.686Z,22.93
2017-04-26T03:39:59.645Z,22.15
2017-04-26T03:40:59.965Z,22.45
2017-04-26T03:41:59.917Z,23.42
2017-04-26T03:42:59.883Z,21.88
2017-04-26T03:43:59.855Z,24.20
2017-04-26T03:44:59.877Z,22.65
2017-04-26T03:46:00.184Z,22.40
2017-04-26T03:47:00.136Z,22.38
2017-04-26T03:48:00.847Z,19.78
2017-04-26T03:49:01.616Z,20.80
2017-04-26T03:50:01.639Z,19.43
2017-04-26T03:51:01.967Z,19.68
2017-04-26T03:52:01.979Z,20.23
2017-04-26T03:53:01.925Z,18.17
2017-04-26T03:54:04.949Z,18.72
2017-04-26T03:55:04.953Z,17.08
2017-04-26T03:56:04.981Z,18.53
2017-04-26T03:57:05.008Z,15.17
2017-04-26T03:58:05.743Z,15.28
2017-04-26T03:59:05.705Z,15.08
2017-04-26T04:00:05.637Z,14.70
2017-04-26T04:01:06.467Z,14.60
2017-04-26T04:02:07.156Z,14.28
2017-04-26T04:03:07.178Z,12.28
2017-04-26T04:04:07.170Z,13.08
2017-04-26T04:05:07.125Z,12.82
2017-04-26T04:06:07.605Z,14.03
2017-04-26T04:07:07.592Z,13.53
2017-04-26T04:08:07.586Z,13.95
2017-04-26T04:09:07.642Z,13.67
2017-04-26T04:10:20.928Z,15.32
2017-04-26T04:11:21.007Z,14.17
2017-04-26T04:12:21.026Z,13.00
2017-04-26T04:13:20.990Z,14.58
2017-04-26T04:14:21.002Z,14.48
2017-04-26T04:15:20.994Z,14.62
2017-04-26T04:16:21.988Z,12.57
2017-04-26T04:17:21.942Z,12.55
2017-04-26T04:18:21.893Z,13.75
2017-04-26T04:19:21.833Z,12.80
2017-04-26T04:20:21.841Z,14.20
2017-04-26T04:21:22.804Z,14.28
2017-04-26T04:22:22.768Z,14.13
2017-04-26T04:23:22.747Z,13.00
2017-04-26T04:24:22.727Z,13.60
2017-04-26T04:25:26.469Z,11.90
2017-04-26T04:26:26.726Z,13.83
2017-04-26T04:27:26.705Z,13.88
2017-04-26T04:28:26.683Z,14.52
2017-04-26T04:29:26.650Z,14.12
2017-04-26T04:30:26.589Z,14.17
2017-04-26T04:31:26.876Z,13.95
2017-04-26T04:32:26.874Z,13.90
2017-04-26T04:33:26.832Z,13.18
2017-04-26T04:34:27.522Z,13.60
2017-04-26T04:35:27.219Z,13.30
2017-04-26T04:36:28.274Z,14.38
2017-04-26T04:37:28.952Z,14.10
2017-04-26T04:38:28.916Z,14.77
2017-04-26T04:39:28.910Z,15.08
2017-04-26T04:40:28.872Z,16.83
2017-04-26T04:41:29.201Z,16.95
2017-04-26T04:42:29.174Z,16.32
2017-04-26T04:43:29.121Z,13.82
2017-04-26T04:44:29.193Z,13.23
2017-04-26T04:45:29.184Z,15.48
2017-04-26T04:46:29.413Z,13.70
2017-04-26T04:47:29.371Z,13.85
2017-04-26T04:48:30.049Z,13.17
2017-04-26T04:49:29.974Z,11.82
2017-04-26T04:50:29.901Z,12.43
2017-04-26T04:51:31.002Z,12.80
2017-04-26T04:52:30.743Z,13.45
2017-04-26T04:53:30.867Z,12.03
2017-04-26T04:54:30.858Z,12.32
2017-04-26T04:55:31.581Z,10.78
2017-04-26T04:56:31.967Z,11.38
2017-04-26T04:57:32.092Z,11.63
2017-04-26T04:58:32.164Z,11.30
2017-04-26T04:59:32.115Z,11.92
2017-04-26T05:00:32.130Z,11.22
2017-04-26T05:01:32.404Z,11.45
2017-04-26T05:02:32.346Z,9.75
2017-04-26T05:03:32.300Z,10.87
2017-04-26T05:04:32.294Z,12.00
2017-04-26T05:05:32.263Z,11.12
2017-04-26T05:06:32.497Z,10.75
2017-04-26T05:07:32.461Z,10.68
2017-04-26T05:08:33.177Z,10.95
2017-04-26T05:09:33.895Z,9.28
2017-04-26T05:10:33.947Z,10.65
2017-04-26T05:11:34.335Z,10.25
2017-04-26T05:12:34.281Z,10.62
2017-04-26T05:13:34.260Z,10.03
2017-04-26T05:14:34.252Z,10.67
2017-04-26T05:15:34.216Z,10.50
2017-04-26T05:16:34.189Z,8.42
2017-04-26T05:17:34.178Z,9.75
2017-04-26T05:18:34.127Z,8.52
2017-04-26T05:19:34.069Z,8.70
2017-04-26T05:20:34.758Z,9.55
2017-04-26T05:21:34.684Z,8.03
2017-04-26T05:22:34.981Z,9.23
2017-04-26T05:23:34.875Z,8.35
2017-04-26T05:24:34.811Z,7.70
2017-04-26T05:25:35.518Z,8.90
2017-04-26T05:26:35.510Z,8.45
2017-04-26T05:27:35.759Z,7.63
2017-04-26T05:28:36.498Z,8.13
2017-04-26T05:29:39.454Z,8.63
2017-04-26T05:30:40.148Z,9.37
2017-04-26T05:31:40.186Z,8.67
2017-04-26T05:32:40.561Z,8.63
2017-04-26T05:33:40.483Z,7.75
2017-04-26T05:34:40.458Z,8.82
2017-04-26T05:35:40.502Z,8.50
2017-04-26T05:36:40.817Z,8.25
2017-04-26T05:37:41.120Z,7.98
2017-04-26T05:38:40.885Z,8.07
2017-04-26T05:39:40.611Z,8.10
2017-04-26T05:40:41.094Z,9.00
2017-04-26T05:41:41.084Z,8.82
2017-04-26T05:42:41.439Z,8.07
2017-04-26T05:43:41.401Z,8.52
2017-04-26T05:44:41.330Z,7.70
2017-04-26T05:45:41.282Z,8.13
2017-04-26T05:46:42.051Z,8.10
2017-04-26T05:47:42.308Z,7.65
2017-04-26T05:48:42.302Z,8.13
2017-04-26T05:49:42.234Z,7.48
2017-04-26T05:50:42.254Z,8.77
2017-04-26T05:51:42.213Z,7.35
2017-04-26T05:52:42.185Z,7.02
2017-04-26T05:53:42.168Z,7.13
2017-04-26T05:54:42.853Z,7.48
2017-04-26T05:55:42.786Z,6.27
2017-04-26T05:56:43.526Z,5.23
2017-04-26T05:57:43.460Z,6.60
2017-04-26T05:58:43.417Z,7.15
2017-04-26T05:59:44.080Z,6.58
2017-04-26T06:00:44.064Z,6.18
2017-04-26T06:01:44.161Z,6.28
2017-04-26T06:02:44.850Z,7.00
2017-04-26T06:03:45.161Z,6.07
2017-04-26T06:04:45.129Z,6.75
2017-04-26T06:05:45.093Z,6.90
2017-04-26T06:06:45.084Z,5.93
2017-04-26T06:07:45.067Z,5.42
2017-04-26T06:08:45.295Z,6.93
2017-04-26T06:09:45.321Z,6.22
2017-04-26T06:10:45.355Z,6.92
2017-04-26T06:11:45.319Z,5.88
2017-04-26T06:12:45.317Z,6.27
2017-04-26T06:13:45.650Z,7.22
2017-04-26T06:14:45.617Z,6.77
2017-04-26T06:15:45.590Z,6.83
2017-04-26T06:16:45.618Z,6.85
2017-04-26T06:17:45.590Z,8.33
2017-04-26T06:18:46.616Z,9.13
2017-04-26T06:19:47.487Z,8.63
2017-04-26T06:20:47.857Z,7.07
2017-04-26T06:21:48.254Z,8.77
2017-04-26T06:22:48.213Z,5.73
2017-04-26T06:23:48.662Z,6.50
2017-04-26T06:24:48.605Z,6.60
2017-04-26T06:25:49.362Z,6.17
2017-04-26T06:26:49.423Z,7.40
2017-04-26T06:27:50.168Z,7.17
2017-04-26T06:28:50.466Z,6.52
2017-04-26T06:29:51.130Z,7.03
2017-04-26T06:30:51.087Z,6.67
2017-04-26T06:31:51.822Z,6.92
2017-04-26T06:32:51.853Z,6.92
2017-04-26T06:33:52.925Z,7.20
2017-04-26T06:34:52.841Z,7.67
2017-04-26T06:35:53.539Z,7.40
2017-04-26T06:36:53.498Z,6.50
2017-04-26T06:37:53.493Z,7.12
2017-04-26T06:38:55.814Z,7.10
2017-04-26T06:39:55.818Z,6.63
2017-04-26T06:40:55.779Z,6.87
2017-04-26T06:41:55.750Z,7.37
2017-04-26T06:42:55.714Z,6.53
2017-04-26T06:43:56.053Z,7.27
2017-04-26T06:44:56.057Z,6.88
2017-04-26T06:45:56.049Z,6.32
2017-04-26T06:46:56.019Z,7.63
2017-04-26T06:47:55.955Z,6.92
2017-04-26T06:48:56.289Z,6.78
2017-04-26T06:49:56.278Z,7.22
2017-04-26T06:50:56.214Z,6.67
2017-04-26T06:51:56.254Z,6.65
2017-04-26T06:52:56.262Z,6.32
2017-04-26T06:53:56.803Z,6.33
2017-04-26T06:54:56.804Z,6.18
2017-04-26T06:55:56.778Z,6.33
2017-04-26T06:56:57.501Z,6.30
2017-04-26T06:57:57.913Z,7.28
2017-04-26T06:58:58.196Z,6.27
2017-04-26T06:59:58.156Z,6.53
2017-04-26T07:00:58.094Z,7.10
2017-04-26T07:01:58.045Z,6.82
2017-04-26T07:03:07.022Z,6.90
2017-04-26T07:04:08.271Z,6.65
2017-04-26T07:05:08.282Z,6.08
2017-04-26T07:06:08.275Z,5.55
2017-04-26T07:07:08.239Z,6.52
2017-04-26T07:08:08.674Z,7.63
2017-04-26T07:09:08.951Z,6.57
2017-04-26T07:10:08.918Z,6.78
2017-04-26T07:11:08.874Z,5.85
2017-04-26T07:12:08.900Z,6.00
2017-04-26T07:13:08.852Z,7.03
2017-04-26T07:14:09.994Z,6.33
2017-04-26T07:15:10.677Z,6.18
2017-04-26T07:16:10.636Z,6.57
2017-04-26T07:17:10.579Z,10.67
2017-04-26T07:18:10.565Z,9.80
2017-04-26T07:19:10.904Z,14.80
2017-04-26T07:20:10.918Z,9.63
2017-04-26T07:21:10.978Z,10.18
2017-04-26T07:22:10.954Z,9.87
2017-04-26T07:23:11.707Z,9.47
2017-04-26T07:24:12.088Z,10.93
2017-04-26T07:25:12.886Z,6.15
2017-04-26T07:26:12.815Z,7.18
2017-04-26T07:27:13.478Z,8.65
2017-04-26T07:28:14.184Z,5.67
2017-04-26T07:29:14.400Z,6.72
2017-04-26T07:30:14.343Z,6.20
2017-04-26T07:31:14.293Z,6.37
2017-04-26T07:32:14.999Z,7.00
2017-04-26T07:33:14.956Z,6.53
2017-04-26T07:34:15.301Z,6.65
2017-04-26T07:35:15.290Z,6.97
2017-04-26T07:36:15.239Z,8.10
2017-04-26T07:37:15.921Z,6.40
2017-04-26T07:38:15.948Z,6.62
2017-04-26T07:39:16.928Z,7.13
2017-04-26T07:40:17.654Z,6.98
2017-04-26T07:41:17.571Z,7.50
2017-04-26T07:42:17.521Z,8.43
2017-04-26T07:43:17.482Z,7.33
2017-04-26T07:44:17.548Z,7.37
2017-04-26T07:45:17.745Z,6.77
2017-04-26T07:46:18.456Z,6.90
2017-04-26T07:47:18.476Z,6.63
2017-04-26T07:48:19.171Z,5.92
2017-04-26T07:49:19.160Z,6.57
2017-04-26T07:50:19.177Z,7.50
2017-04-26T07:51:19.129Z,8.98
2017-04-26T07:52:19.067Z,7.58
2017-04-26T07:53:18.984Z,10.38
2017-04-26T07:54:19.026Z,9.02
2017-04-26T07:55:19.724Z,8.53
2017-04-26T07:56:19.724Z,13.78
2017-04-26T07:57:19.686Z,8.67
2017-04-26T07:58:19.642Z,10.20
2017-04-26T07:59:19.623Z,7.00
2017-04-26T08:00:19.971Z,10.35
2017-04-26T08:01:19.988Z,9.10
2017-04-26T08:02:19.909Z,7.28
2017-04-26T08:03:19.917Z,7.15
2017-04-26T08:04:20.703Z,7.42
2017-04-26T08:05:21.032Z,7.70
2017-04-26T08:06:20.963Z,7.52
2017-04-26T08:07:20.908Z,9.30
2017-04-26T08:08:20.898Z,11.30
2017-04-26T08:09:20.873Z,8.57
2017-04-26T08:10:21.863Z,7.50
2017-04-26T08:11:21.834Z,5.78
2017-04-26T08:12:21.788Z,6.20
2017-04-26T08:13:21.759Z,5.90
2017-04-26T08:14:21.679Z,5.85
2017-04-26T08:15:21.888Z,6.50
2017-04-26T08:16:21.947Z,6.03
2017-04-26T08:17:21.996Z,6.10
2017-04-26T08:18:21.931Z,5.45
2017-04-26T08:19:21.949Z,6.28
2017-04-26T08:20:22.349Z,6.18
2017-04-26T08:21:22.275Z,6.02
2017-04-26T08:22:22.382Z,6.15
2017-04-26T08:23:23.031Z,5.87
2017-04-26T08:24:23.051Z,5.85
2017-04-26T08:25:23.277Z,5.72
2017-04-26T08:26:23.297Z,5.23
2017-04-26T08:27:23.260Z,5.38
2017-04-26T08:28:23.277Z,5.35
2017-04-26T08:29:23.303Z,6.25
2017-04-26T08:30:23.572Z,5.48
2017-04-26T08:31:23.538Z,5.27
2017-04-26T08:32:23.517Z,4.67
2017-04-26T08:33:23.499Z,4.90
2017-04-26T08:34:23.511Z,5.12
2017-04-26T08:35:23.791Z,5.67
2017-04-26T08:36:24.543Z,5.48
2017-04-26T08:37:24.583Z,5.70
2017-04-26T08:38:25.345Z,5.70
2017-04-26T08:39:25.457Z,4.73
2017-04-26T08:40:26.691Z,6.18
2017-04-26T08:41:26.719Z,5.97
2017-04-26T08:42:26.719Z,4.97
2017-04-26T08:43:26.666Z,5.22
2017-04-26T08:44:26.677Z,4.23
2017-04-26T08:45:26.917Z,4.95
2017-04-26T08:46:27.753Z,6.70
2017-04-26T08:47:27.708Z,9.05
2017-04-26T08:48:27.706Z,12.13
2017-04-26T08:49:27.661Z,9.23
2017-04-26T08:50:28.774Z,7.32
2017-04-26T08:51:28.815Z,5.58
2017-04-26T08:52:28.908Z,5.77
2017-04-26T08:53:29.219Z,6.23
2017-04-26T08:54:29.916Z,7.68
2017-04-26T08:55:30.233Z,5.52
2017-04-26T08:56:30.235Z,6.80
2017-04-26T08:57:30.218Z,9.22
2017-04-26T08:58:30.166Z,9.92
2017-04-26T08:59:30.944Z,10.10
2017-04-26T09:00:31.281Z,10.83
2017-04-26T09:01:31.325Z,10.40
2017-04-26T09:02:31.801Z,10.78
2017-04-26T09:03:32.604Z,8.15
2017-04-26T09:04:33.507Z,9.87
2017-04-26T09:05:33.891Z,6.87
2017-04-26T09:06:33.866Z,5.62
2017-04-26T09:07:33.805Z,6.27
2017-04-26T09:08:33.757Z,5.03
2017-04-26T09:09:33.742Z,4.63
2017-04-26T09:10:34.178Z,4.48
2017-04-26T09:11:34.169Z,4.45
2017-04-26T09:12:34.194Z,4.20
2017-04-26T09:13:34.165Z,4.03
2017-04-26T09:14:34.861Z,5.17
2017-04-26T09:15:35.161Z,4.10
2017-04-26T09:16:34.848Z,3.98
2017-04-26T09:17:35.563Z,4.02
2017-04-26T09:18:36.256Z,3.68
2017-04-26T09:19:36.185Z,3.93
2017-04-26T09:20:36.626Z,4.30
2017-04-26T09:21:36.660Z,4.55
2017-04-26T09:22:37.470Z,3.62
2017-04-26T09:23:37.416Z,4.20
2017-04-26T09:24:37.449Z,4.32
2017-04-26T09:25:37.698Z,4.03
2017-04-26T09:26:37.690Z,3.93
2017-04-26T09:27:37.671Z,3.93
2017-04-26T09:28:37.765Z,3.05
2017-04-26T09:29:37.779Z,3.33
2017-04-26T09:30:38.056Z,2.97
2017-04-26T09:31:38.758Z,3.38
2017-04-26T09:32:38.717Z,3.38
2017-04-26T09:33:38.729Z,3.87
2017-04-26T09:34:38.715Z,3.08
2017-04-26T09:35:38.999Z,2.90
2017-04-26T09:36:39.688Z,3.00
2017-04-26T09:37:39.713Z,3.35
2017-04-26T09:38:39.666Z,3.37
2017-04-26T09:39:39.633Z,3.70
2017-04-26T09:40:39.929Z,3.33
2017-04-26T09:41:39.887Z,3.33
2017-04-26T09:42:39.815Z,3.67
2017-04-26T09:43:39.790Z,26.70
2017-04-26T09:44:39.768Z,22.93
2017-04-26T09:45:40.760Z,4.93
2017-04-26T09:46:40.697Z,4.20
2017-04-26T09:47:40.627Z,3.72
2017-04-26T09:48:40.558Z,3.88
2017-04-26T09:49:40.640Z,3.90
2017-04-26T09:50:41.010Z,4.30
2017-04-26T09:51:41.007Z,3.45
2017-04-26T09:52:40.972Z,3.67
2017-04-26T09:53:40.911Z,3.20
2017-04-26T09:54:40.927Z,3.97
2017-04-26T09:55:41.280Z,3.73
2017-04-26T09:56:41.950Z,3.85
2017-04-26T09:57:41.884Z,3.52
2017-04-26T09:58:41.803Z,3.60
2017-04-26T09:59:42.497Z,3.48
2017-04-26T10:00:42.767Z,4.18
2017-04-26T10:01:42.781Z,3.30
2017-04-26T10:02:43.519Z,3.27
2017-04-26T10:03:43.478Z,3.90
2017-04-26T10:04:44.377Z,3.90
2017-04-26T10:05:44.647Z,3.87
2017-04-26T10:06:44.621Z,3.62
2017-04-26T10:07:44.551Z,3.78
2017-04-26T10:08:44.476Z,5.05
2017-04-26T10:09:44.641Z,3.88
2017-04-26T10:10:45.733Z,4.70
2017-04-26T10:11:45.690Z,4.55
2017-04-26T10:12:45.646Z,3.77
2017-04-26T10:13:45.613Z,4.30
2017-04-26T10:14:45.585Z,4.13
2017-04-26T10:15:46.691Z,4.00
2017-04-26T10:16:46.670Z,4.02
2017-04-26T10:17:47.353Z,4.90
2017-04-26T10:18:48.061Z,3.73
2017-04-26T10:19:48.774Z,3.88
2017-04-26T10:20:49.074Z,6.10
2017-04-26T10:21:48.783Z,4.62
2017-04-26T10:22:49.004Z,4.78
2017-04-26T10:23:48.986Z,5.25
2017-04-26T10:24:48.922Z,7.88
2017-04-26T10:25:50.234Z,5.25
2017-04-26T10:26:50.251Z,6.03
2017-04-26T10:27:50.157Z,5.03
2017-04-26T10:28:50.109Z,4.72
2017-04-26T10:29:49.997Z,4.35
2017-04-26T10:30:49.932Z,3.90
2017-04-26T10:31:49.874Z,5.77
2017-04-26T10:32:49.818Z,4.67
2017-04-26T10:33:49.789Z,4.88
2017-04-26T10:34:50.501Z,4.58
2017-04-26T10:35:50.414Z,4.03
2017-04-26T10:36:50.702Z,4.12
2017-04-26T10:37:50.660Z,3.60
2017-04-26T10:38:50.581Z,3.93
2017-04-26T10:39:50.504Z,4.18
2017-04-26T10:40:50.524Z,4.47
2017-04-26T10:41:50.847Z,4.40
2017-04-26T10:42:50.881Z,4.60
2017-04-26T10:43:50.877Z,3.90
2017-04-26T10:44:50.802Z,4.70
2017-04-26T10:45:50.787Z,4.77
2017-04-26T10:46:51.794Z,4.12
2017-04-26T10:47:51.757Z,3.93
2017-04-26T10:48:51.715Z,3.98
2017-04-26T10:49:51.669Z,4.68
2017-04-26T10:50:51.682Z,4.32
2017-04-26T10:51:52.742Z,4.17
2017-04-26T10:52:52.784Z,3.97
2017-04-26T10:53:53.477Z,3.90
2017-04-26T10:54:53.400Z,3.22
2017-04-26T10:55:53.376Z,3.62
2017-04-26T10:56:53.684Z,4.73
2017-04-26T10:57:53.642Z,4.13
2017-04-26T10:58:55.496Z,4.05
2017-04-26T10:59:55.471Z,3.83
2017-04-26T11:00:55.470Z,4.52
2017-04-26T11:01:55.787Z,3.67
2017-04-26T11:02:55.740Z,4.08
2017-04-26T11:03:55.648Z,4.13
2017-04-26T11:04:55.621Z,3.70
2017-04-26T11:05:56.279Z,4.02
2017-04-26T11:06:56.531Z,3.63
2017-04-26T11:07:56.465Z,3.62
2017-04-26T11:08:56.661Z,3.67
2017-04-26T11:09:57.324Z,3.97
2017-04-26T11:10:57.328Z,3.37
2017-04-26T11:11:57.595Z,3.75
2017-04-26T11:12:57.519Z,4.40
2017-04-26T11:13:58.148Z,3.53
2017-04-26T11:14:58.078Z,3.57
2017-04-26T11:15:58.049Z,4.13
2017-04-26T11:16:58.315Z,4.10
2017-04-26T11:17:58.253Z,3.78
2017-04-26T11:18:58.223Z,4.08
2017-04-26T11:19:58.157Z,4.72
2017-04-26T11:20:58.890Z,3.72
2017-04-26T11:21:59.982Z,3.93
2017-04-26T11:22:59.729Z,4.02
2017-04-26T11:23:59.527Z,5.82
2017-04-26T11:25:00.246Z,4.00
2017-04-26T11:26:00.945Z,4.45
2017-04-26T11:27:01.303Z,3.92
2017-04-26T11:28:01.236Z,4.05
2017-04-26T11:29:01.191Z,3.87
2017-04-26T11:30:01.869Z,4.00
2017-04-26T11:31:01.790Z,8.58
2017-04-26T11:32:02.082Z,8.90
2017-04-26T11:33:02.038Z,7.10
2017-04-26T11:34:02.808Z,10.17
2017-04-26T11:35:02.797Z,10.58
2017-04-26T11:36:02.800Z,12.80
2017-04-26T11:37:03.053Z,4.67
2017-04-26T11:38:03.070Z,9.57
2017-04-26T11:39:03.091Z,6.68
2017-04-26T11:40:03.901Z,7.55
2017-04-26T11:41:03.913Z,6.03
2017-04-26T11:42:04.925Z,6.03
2017-04-26T11:43:04.946Z,7.40
2017-04-26T11:44:04.902Z,15.93
2017-04-26T11:45:04.862Z,28.15
2017-04-26T11:46:05.574Z,4.37
2017-04-26T11:47:05.796Z,3.72
2017-04-26T11:48:06.524Z,4.57
2017-04-26T11:49:07.251Z,15.95
2017-04-26T11:50:07.954Z,5.18
2017-04-26T11:51:07.942Z,4.37
2017-04-26T11:52:07.907Z,3.98
2017-04-26T11:53:07.872Z,3.87
2017-04-26T11:54:07.893Z,3.60
2017-04-26T11:55:08.600Z,4.07
2017-04-26T11:56:08.521Z,4.25
2017-04-26T11:57:09.618Z,6.77
2017-04-26T11:58:09.564Z,15.12
2017-04-26T11:59:09.556Z,4.78
2017-04-26T12:00:09.536Z,3.77
2017-04-26T12:01:09.497Z,3.77
2017-04-26T12:02:09.771Z,3.55
2017-04-26T12:03:09.775Z,3.65
2017-04-26T12:04:09.743Z,4.73
2017-04-26T12:05:09.760Z,6.95
2017-04-26T12:06:09.838Z,21.15
2017-04-26T12:07:10.201Z,12.72
2017-04-26T12:08:10.190Z,6.57
2017-04-26T12:09:10.214Z,3.40
2017-04-26T12:10:10.203Z,3.45
2017-04-26T12:11:10.166Z,4.35
2017-04-26T12:12:10.430Z,8.13
2017-04-26T12:13:10.396Z,12.33
2017-04-26T12:14:10.366Z,10.07
2017-04-26T12:15:11.108Z,6.32
2017-04-26T12:16:11.004Z,4.57
2017-04-26T12:17:11.378Z,4.58
2017-04-26T12:18:11.069Z,4.15
2017-04-26T12:19:11.037Z,4.73
2017-04-26T12:20:11.035Z,4.40
2017-04-26T12:21:10.985Z,3.98
2017-04-26T12:22:10.947Z,4.00
2017-04-26T12:23:10.973Z,3.58
2017-04-26T12:24:10.940Z,5.45
2017-04-26T12:25:10.916Z,6.35
2017-04-26T12:26:10.875Z,4.85
2017-04-26T12:27:10.781Z,5.12
2017-04-26T12:28:11.068Z,4.58
2017-04-26T12:29:11.745Z,4.05
2017-04-26T12:30:11.741Z,3.42
2017-04-26T12:31:11.663Z,3.93
2017-04-26T12:32:11.632Z,3.88
2017-04-26T12:33:11.878Z,3.22
2017-04-26T12:34:11.815Z,3.22
2017-04-26T12:35:11.535Z,2.75
2017-04-26T12:36:11.289Z,2.92
2017-04-26T12:37:12.040Z,3.50
2017-04-26T12:38:13.119Z,3.70
2017-04-26T12:39:13.037Z,3.63
2017-04-26T12:40:12.968Z,3.62
2017-04-26T12:41:12.778Z,4.08
2017-04-26T12:42:13.459Z,3.17
2017-04-26T12:43:13.787Z,3.87
2017-04-26T12:44:13.799Z,3.52
2017-04-26T12:45:13.805Z,4.00
2017-04-26T12:46:14.535Z,3.03
2017-04-26T12:47:14.469Z,3.17
2017-04-26T12:48:15.219Z,3.43
2017-04-26T12:49:14.976Z,3.48
2017-04-26T12:50:14.791Z,3.73
2017-04-26T12:51:15.560Z,3.67
2017-04-26T12:52:15.568Z,3.53
2017-04-26T12:53:15.849Z,3.30
2017-04-26T12:54:15.819Z,3.42
2017-04-26T12:55:15.790Z,2.77
2017-04-26T12:56:15.773Z,2.83
2017-04-26T12:57:16.145Z,2.92
2017-04-26T12:58:16.460Z,2.93
2017-04-26T12:59:16.420Z,3.18
2017-04-26T13:00:16.938Z,2.90
2017-04-26T13:01:16.877Z,2.63
2017-04-26T13:02:16.606Z,3.18
2017-04-26T13:03:16.878Z,2.92
2017-04-26T13:04:16.833Z,2.30
2017-04-26T13:05:16.513Z,2.77
2017-04-26T13:06:16.510Z,2.82
2017-04-26T13:07:16.756Z,3.12
2017-04-26T13:08:17.023Z,3.33
2017-04-26T13:09:16.927Z,3.10
2017-04-26T13:10:16.891Z,3.00